Time;durP1;ratioP1;P1;durP2;ratioP2;P2;SDS_P1;SDS_P2;PMS_P1;PMS_P2;Temp;Humidity;BMP_temperature;BMP_pressure;BME280_temperature;BME280_humidity;BME280_pressure;Samples;Min_cycle;Max_cycle;Signal;HPM_P1;HPM_P2
2022/05/30 00:00:16;;;;;;;7.43;5.07;;;;;;;16.13;100.00;94107.41;5060691;28;20209;-78
2022/05/30 00:02:48;;;;;;;9.17;5.17;;;;;;;15.98;100.00;94107.44;5059378;28;21598;-79
2022/05/30 00:05:21;;;;;;;8.30;5.50;;;;;;;15.98;100.00;94105.63;5061156;28;20267;-76
2022/05/30 00:07:52;;;;;;;7.20;5.90;;;;;;;15.93;100.00;94102.97;5060743;28;20197;-77
2022/05/30 00:10:24;;;;;;;9.03;6.00;;;;;;;15.89;100.00;94110.59;5058361;28;20644;-78
2022/05/30 00:12:58;;;;;;;6.67;5.67;;;;;;;15.95;100.00;94105.34;5059442;28;20216;-78
2022/05/30 00:15:32;;;;;;;10.50;5.40;;;;;;;15.98;100.00;94102.19;5058297;28;20208;-78
2022/05/30 00:18:07;;;;;;;9.57;5.23;;;;;;;15.97;100.00;94100.63;5057152;28;20278;-77
2022/05/30 00:20:40;;;;;;;9.67;5.30;;;;;;;15.88;100.00;94105.59;5055124;28;20197;-77
2022/05/30 00:23:14;;;;;;;16.40;5.67;;;;;;;15.78;100.00;94109.03;5057028;28;20704;-77
2022/05/30 00:25:48;;;;;;;8.67;5.17;;;;;;;15.74;100.00;94102.75;5058114;28;20202;-77
2022/05/30 00:28:22;;;;;;;7.33;4.93;;;;;;;15.71;100.00;94103.25;5060224;28;20205;-77
2022/05/30 00:30:53;;;;;;;6.60;4.63;;;;;;;15.73;100.00;94100.38;5058615;28;20209;-78
2022/05/30 00:33:24;;;;;;;6.17;4.93;;;;;;;15.69;100.00;94099.34;5059423;28;20200;-79
2022/05/30 00:35:54;;;;;;;7.23;5.13;;;;;;;15.46;100.00;94099.84;5060201;28;20206;-79
2022/05/30 00:38:28;;;;;;;6.67;5.00;;;;;;;15.47;100.00;94107.44;5062530;28;20217;-79
2022/05/30 00:41:02;;;;;;;9.07;5.10;;;;;;;15.43;100.00;94100.34;5063874;28;20208;-78
2022/05/30 00:43:36;;;;;;;6.80;4.87;;;;;;;15.41;100.00;94107.69;5057068;28;20619;-79
2022/05/30 00:46:15;;;;;;;7.80;5.17;;;;;;;15.41;100.00;94110.31;5057728;28;20264;-78
2022/05/30 00:48:55;;;;;;;12.63;5.40;;;;;;;15.29;100.00;94102.72;5057547;28;20205;-78
2022/05/30 00:51:30;;;;;;;11.97;5.70;;;;;;;15.38;100.00;94110.81;5053936;28;20255;-78
2022/05/30 00:54:09;;;;;;;10.60;6.00;;;;;;;15.38;100.00;94103.75;5058066;28;20266;-78
2022/05/30 00:56:45;;;;;;;12.53;5.63;;;;;;;15.41;100.00;94110.31;5057636;28;20233;-78
2022/05/30 00:59:21;;;;;;;12.33;6.67;;;;;;;15.46;100.00;94105.88;5060350;28;20259;-78
2022/05/30 01:01:52;;;;;;;11.63;6.33;;;;;;;15.46;100.00;94118.16;5060251;28;20683;-78
2022/05/30 01:07:17;;;;;;;8.13;5.77;;;;;;;15.48;100.00;94114.25;5060318;28;20339;-79
2022/05/30 01:09:56;;;;;;;10.43;6.13;;;;;;;15.35;100.00;94106.91;5054454;28;20228;-79
2022/05/30 01:12:42;;;;;;;12.67;5.63;;;;;;;15.33;100.00;94107.16;5057707;28;20237;-79
2022/05/30 01:15:16;;;;;;;10.10;6.70;;;;;;;15.39;100.00;94112.38;5058081;28;20300;-79
2022/05/30 01:17:57;;;;;;;12.83;6.97;;;;;;;15.32;100.00;94110.03;5058805;28;20224;-79
2022/05/30 01:20:39;;;;;;;10.00;5.60;;;;;;;15.35;100.00;94110.28;5056921;28;20263;-79
2022/05/30 01:23:40;;;;;;;11.90;5.37;;;;;;;15.30;100.00;94114.72;5058761;28;20698;-79
2022/05/30 01:26:39;;;;;;;9.00;5.37;;;;;;;15.24;100.00;94111.31;5058201;28;20219;-79
2022/05/30 01:29:20;;;;;;;9.33;4.70;;;;;;;15.32;100.00;94120.50;5056190;28;20223;-79
2022/05/30 01:31:54;;;;;;;8.70;4.57;;;;;;;15.30;100.00;94123.38;5058324;28;20614;-79
2022/05/30 01:34:25;;;;;;;7.17;4.77;;;;;;;15.28;100.00;94119.44;5058157;28;20201;-79
2022/05/30 01:36:57;;;;;;;8.53;4.90;;;;;;;15.22;100.00;94118.66;5059928;28;20210;-79
2022/05/30 01:39:29;;;;;;;11.10;5.20;;;;;;;15.25;100.00;94123.38;5060388;28;20222;-79
2022/05/30 01:41:59;;;;;;;8.53;5.50;;;;;;;15.25;100.00;94122.59;5057319;28;20300;-78
2022/05/30 01:44:34;;;;;;;12.43;5.63;;;;;;;15.12;100.00;94107.38;5061818;28;20233;-78
2022/05/30 01:47:11;;;;;;;8.40;5.43;;;;;;;15.24;100.00;94123.63;5057970;28;20220;-78
2022/05/30 01:49:43;;;;;;;8.33;5.50;;;;;;;15.23;100.00;94125.47;5061196;28;20223;-79
2022/05/30 01:52:16;;;;;;;7.77;5.57;;;;;;;15.10;100.00;94120.72;5063765;28;20228;-79
2022/05/30 01:54:52;;;;;;;7.97;5.40;;;;;;;15.05;100.00;94115.47;5061977;28;20206;-78
2022/05/30 01:57:21;;;;;;;8.57;5.60;;;;;;;15.02;100.00;94123.06;5056400;28;20221;-78
2022/05/30 01:59:57;;;;;;;7.80;5.50;;;;;;;15.02;100.00;94121.22;5060814;28;20559;-78
2022/05/30 02:02:28;;;;;;;8.50;5.63;;;;;;;15.00;100.00;94117.31;5061321;28;20204;-79
2022/05/30 02:05:01;;;;;;;9.33;5.70;;;;;;;14.86;100.00;94109.16;5059343;28;20283;-79
2022/05/30 02:07:38;;;;;;;9.60;5.83;;;;;;;14.75;100.00;94124.03;5059501;28;20686;-78
2022/05/30 02:10:12;;;;;;;17.40;8.60;;;;;;;14.68;100.00;94115.63;5063315;28;20201;-78
2022/05/30 02:12:47;;;;;;;18.20;10.90;;;;;;;14.73;100.00;94127.94;5056551;28;20288;-84
2022/05/30 02:15:22;;;;;;;23.53;17.03;;;;;;;14.77;100.00;94134.25;5058606;28;20194;-83
2022/05/30 02:17:55;;;;;;;24.47;17.77;;;;;;;14.72;100.00;94139.44;5065333;28;20221;-84
2022/05/30 02:20:27;;;;;;;27.23;18.23;;;;;;;14.71;100.00;94138.66;5059753;28;20214;-86
2022/05/30 02:23:00;;;;;;;32.00;22.07;;;;;;;14.73;100.00;94141.03;5060499;28;20579;-86
2022/05/30 02:25:31;;;;;;;35.27;25.57;;;;;;;14.77;100.00;94142.84;5062000;28;20201;-85
2022/05/30 02:28:01;;;;;;;33.03;24.63;;;;;;;14.73;100.00;94130.56;5062639;28;20251;-85
2022/05/30 02:30:39;;;;;;;28.73;20.07;;;;;;;14.75;100.00;94128.47;5063452;28;20280;-87
2022/05/30 02:38:50;;;;;;;15.87;10.00;;;;;;;14.66;100.00;94151.72;5060409;28;20241;-84
2022/05/30 02:41:21;;;;;;;18.97;8.27;;;;;;;14.58;100.00;94154.81;5060002;28;20212;-84
2022/05/30 02:43:54;;;;;;;18.47;7.90;;;;;;;14.57;100.00;94157.69;5063601;28;20320;-84
2022/05/30 02:46:29;;;;;;;19.50;8.77;;;;;;;14.57;100.00;94148.00;5060612;28;20206;-81
2022/05/30 02:49:01;;;;;;;16.17;9.33;;;;;;;14.68;100.00;94154.88;5062568;28;20254;-81
2022/05/30 02:51:33;;;;;;;19.63;11.13;;;;;;;14.66;100.00;94162.16;5060663;28;20236;-79
2022/05/30 02:54:11;;;;;;;15.73;10.30;;;;;;;14.68;100.00;94167.94;5061734;28;20205;-79
2022/05/30 02:56:41;;;;;;;16.13;9.87;;;;;;;14.62;100.00;94181.25;5060635;28;20206;-79
2022/05/30 02:59:15;;;;;;;16.57;9.27;;;;;;;14.63;100.00;94180.22;5061201;28;20300;-79
2022/05/30 03:01:50;;;;;;;18.63;9.20;;;;;;;14.52;100.00;94170.72;5058261;28;20336;-79
2022/05/30 03:04:25;;;;;;;15.57;7.90;;;;;;;14.61;100.00;94188.31;5060639;28;20316;-79
2022/05/30 03:06:56;;;;;;;8.80;6.43;;;;;;;14.63;100.00;94186.22;5058304;28;20730;-79
2022/05/30 03:09:25;;;;;;;14.47;7.00;;;;;;;14.65;100.00;94199.84;5057766;28;20208;-78
2022/05/30 03:11:57;;;;;;;12.27;6.30;;;;;;;14.56;100.00;94197.94;5059488;28;20607;-79
2022/05/30 03:14:28;;;;;;;12.23;6.77;;;;;;;14.61;100.00;94211.06;5058717;28;20216;-78
2022/05/30 03:17:05;;;;;;;11.27;6.87;;;;;;;14.40;100.00;94214.59;5059747;28;20197;-78
2022/05/30 03:19:36;;;;;;;9.37;6.00;;;;;;;14.15;100.00;94217.78;5059025;28;20205;-78
2022/05/30 03:22:05;;;;;;;9.40;6.03;;;;;;;14.10;100.00;94220.38;5058446;28;20205;-79
2022/05/30 03:24:38;;;;;;;13.67;7.40;;;;;;;14.11;100.00;94224.56;5058770;28;20207;-78
2022/05/30 03:27:14;;;;;;;7.70;5.73;;;;;;;14.02;100.00;94223.44;5061658;28;20725;-78
2022/05/30 03:29:45;;;;;;;14.17;5.87;;;;;;;13.92;100.00;94224.13;5060674;28;20965;-79
2022/05/30 03:32:20;;;;;;;13.33;6.10;;;;;;;13.78;100.00;94225.59;5062724;28;20710;-79
2022/05/30 03:34:54;;;;;;;8.77;5.63;;;;;;;13.92;100.00;94244.25;5061136;28;20525;-79
2022/05/30 03:37:25;;;;;;;11.13;6.20;;;;;;;14.02;100.00;94244.34;5057523;28;20205;-81
2022/05/30 03:39:58;;;;;;;12.43;6.37;;;;;;;14.16;100.00;94251.53;5060092;28;20201;-79
2022/05/30 03:42:30;;;;;;;11.63;6.23;;;;;;;14.22;100.00;94257.56;5055080;28;20210;-74
2022/05/30 03:45:00;;;;;;;11.93;6.07;;;;;;;14.24;100.00;94263.34;5058284;28;20232;-77
2022/05/30 03:47:39;;;;;;;10.17;6.40;;;;;;;14.22;100.00;94265.41;5057388;28;20201;-75
2022/05/30 03:50:16;;;;;;;10.33;5.70;;;;;;;14.23;100.00;94265.16;5057220;28;20321;-74
2022/05/30 03:52:52;;;;;;;9.13;6.10;;;;;;;14.19;100.00;94268.53;5057735;28;20267;-74
2022/05/30 03:55:25;;;;;;;8.60;5.47;;;;;;;14.10;100.00;94273.41;5057987;28;20209;-74
2022/05/30 03:57:59;;;;;;;8.90;5.20;;;;;;;14.15;100.00;94277.91;5060562;28;20216;-74
2022/05/30 04:00:29;;;;;;;8.23;5.83;;;;;;;14.05;100.00;94281.19;5059162;28;20205;-74
2022/05/30 04:03:05;;;;;;;10.63;6.17;;;;;;;14.03;100.00;94277.25;5059713;28;20660;-74
2022/05/30 04:05:34;;;;;;;9.23;6.10;;;;;;;13.74;100.00;94281.94;5057164;28;20223;-74
2022/05/30 04:08:07;;;;;;;10.20;6.93;;;;;;;13.47;100.00;94283.78;5056518;28;20206;-75
2022/05/30 04:10:37;;;;;;;9.97;6.20;;;;;;;13.33;100.00;94278.09;5057797;28;20292;-74
2022/05/30 04:13:08;;;;;;;11.33;7.00;;;;;;;13.33;100.00;94288.56;5060813;28;20666;-75
2022/05/30 04:15:38;;;;;;;12.37;7.50;;;;;;;13.35;100.00;94293.53;5060626;28;20289;-76
2022/05/30 04:18:12;;;;;;;12.83;8.10;;;;;;;13.33;100.00;94293.00;5059924;28;20213;-76
2022/05/30 04:20:41;;;;;;;12.77;8.17;;;;;;;13.21;100.00;94289.72;5063138;28;20274;-76
2022/05/30 04:23:13;;;;;;;14.37;8.23;;;;;;;13.22;100.00;94296.53;5064511;28;20209;-78
2022/05/30 04:25:42;;;;;;;15.70;9.50;;;;;;;13.13;100.00;94303.19;5061961;28;21017;-76
2022/05/30 04:28:16;;;;;;;16.70;9.40;;;;;;;13.11;100.00;94298.19;5061837;28;20260;-76
2022/05/30 04:30:44;;;;;;;13.77;8.83;;;;;;;13.10;100.00;94280.19;5062914;28;20278;-76
2022/05/30 04:33:17;;;;;;;13.07;9.07;;;;;;;13.32;100.00;94291.41;5062839;28;20292;-76
2022/05/30 04:35:45;;;;;;;12.37;8.13;;;;;;;13.40;100.00;94288.38;5063311;28;20201;-76
2022/05/30 04:38:17;;;;;;;11.90;7.93;;;;;;;13.45;100.00;94284.00;5062712;28;20324;-76
2022/05/30 04:40:52;;;;;;;13.27;8.50;;;;;;;13.49;100.00;94272.03;5062923;28;20228;-75
2022/05/30 04:43:24;;;;;;;13.37;7.53;;;;;;;13.49;100.00;94260.81;5062428;28;20244;-76
2022/05/30 04:46:12;;;;;;;14.30;8.30;;;;;;;13.60;100.00;94270.31;5064886;28;20739;-76
2022/05/30 04:48:45;;;;;;;13.00;8.63;;;;;;;13.82;100.00;94273.69;5063273;28;20213;-77
2022/05/30 04:51:17;;;;;;;18.27;8.50;;;;;;;14.00;100.00;94264.69;5064533;28;20684;-88
2022/05/30 04:53:51;;;;;;;12.70;8.27;;;;;;;14.08;100.00;94265.03;5063740;28;20552;-79
2022/05/30 04:56:25;;;;;;;14.67;9.13;;;;;;;14.21;100.00;94264.63;5059839;28;20193;-78
2022/05/30 04:59:02;;;;;;;16.17;9.60;;;;;;;14.23;100.00;94263.59;5063080;28;20570;-77
2022/05/30 05:01:33;;;;;;;14.83;9.70;;;;;;;14.39;100.00;94265.31;5061600;28;20369;-78
2022/05/30 05:04:08;;;;;;;18.80;10.67;;;;;;;14.43;100.00;94272.38;5063416;28;20205;-77
2022/05/30 05:06:44;;;;;;;16.90;9.50;;;;;;;14.52;100.00;94275.31;5063545;28;20226;-76
2022/05/30 05:09:39;;;;;;;14.53;9.23;;;;;;;14.66;100.00;94277.25;5060727;28;20202;-76
2022/05/30 05:12:13;;;;;;;16.90;9.70;;;;;;;14.75;100.00;94282.81;5062887;28;20229;-76
2022/05/30 05:14:46;;;;;;;16.30;9.93;;;;;;;14.83;100.00;94281.56;5062613;28;20295;-75
2022/05/30 05:17:23;;;;;;;19.40;13.10;;;;;;;14.99;100.00;94288.44;5065100;28;20284;-77
2022/05/30 05:20:00;;;;;;;23.70;14.33;;;;;;;15.05;100.00;94285.59;5064245;28;20229;-77
2022/05/30 05:22:35;;;;;;;18.93;13.30;;;;;;;15.14;100.00;94293.75;5064777;28;20212;-76
2022/05/30 05:25:08;;;;;;;25.03;13.10;;;;;;;15.27;100.00;94299.31;5066811;28;20203;-77
2022/05/30 05:27:40;;;;;;;20.53;12.33;;;;;;;15.33;100.00;94298.28;5066372;28;20696;-78
2022/05/30 05:30:15;;;;;;;20.60;12.83;;;;;;;15.45;100.00;94305.94;5065936;28;20383;-78
2022/05/30 05:32:50;;;;;;;22.27;12.97;;;;;;;15.52;100.00;94303.91;5065959;28;20209;-77
2022/05/30 05:35:24;;;;;;;23.17;12.73;;;;;;;15.62;100.00;94297.91;5063410;28;20761;-78
2022/05/30 05:37:55;;;;;;;22.50;13.60;;;;;;;15.72;100.00;94306.59;5063147;28;20209;-77
2022/05/30 05:40:24;;;;;;;23.03;13.40;;;;;;;15.74;100.00;94304.50;5066190;28;20208;-79
2022/05/30 05:42:56;;;;;;;24.27;13.40;;;;;;;15.80;100.00;94308.72;5068455;28;20286;-77
2022/05/30 05:45:29;;;;;;;19.30;12.70;;;;;;;15.85;100.00;94307.91;5067955;28;20293;-77
2022/05/30 05:48:00;;;;;;;23.90;13.20;;;;;;;15.92;100.00;94311.09;5065893;28;20204;-79
2022/05/30 05:50:35;;;;;;;22.83;13.77;;;;;;;15.94;100.00;94308.19;5065180;28;20205;-77
2022/05/30 05:53:09;;;;;;;23.33;13.30;;;;;;;15.92;100.00;94311.09;5066706;28;20236;-79
2022/05/30 05:55:43;;;;;;;27.40;13.97;;;;;;;15.95;100.00;94310.59;5066815;28;20216;-80
2022/05/30 05:58:14;;;;;;;22.77;13.70;;;;;;;15.94;100.00;94309.00;5068255;28;21143;-83
2022/05/30 06:00:49;;;;;;;28.47;13.83;;;;;;;16.03;100.00;94312.69;5068229;28;20206;-83
2022/05/30 06:03:19;;;;;;;24.00;12.80;;;;;;;16.08;100.00;94317.13;5064792;28;20219;-79
2022/05/30 06:05:51;;;;;;;19.57;13.23;;;;;;;16.12;100.00;94320.81;5063409;28;20322;-79
2022/05/30 06:08:22;;;;;;;22.50;13.33;;;;;;;16.09;100.00;94322.13;5068386;28;20213;-79
2022/05/30 06:11:11;;;;;;;19.83;13.40;;;;;;;16.17;100.00;94328.69;5068805;28;20198;-78
2022/05/30 06:13:47;;;;;;;21.90;13.53;;;;;;;16.17;100.00;94320.81;5067687;28;20258;-77
2022/05/30 06:16:20;;;;;;;26.03;13.53;;;;;;;16.24;100.00;94331.88;5067424;28;20209;-80
2022/05/30 06:18:52;;;;;;;22.70;14.00;;;;;;;16.26;100.00;94335.78;5062538;28;20713;-83
2022/05/30 06:21:28;;;;;;;25.00;13.87;;;;;;;16.32;100.00;94332.13;5062803;28;20625;-81
2022/05/30 06:24:05;;;;;;;20.57;13.63;;;;;;;16.40;100.00;94331.63;5061682;28;20193;-80
2022/05/30 06:26:38;;;;;;;24.53;13.60;;;;;;;16.49;100.00;94331.88;5066400;28;20232;-83
2022/05/30 06:29:11;;;;;;;21.40;13.03;;;;;;;16.65;100.00;94341.34;5065615;28;20236;-79
2022/05/30 06:31:40;;;;;;;26.13;14.57;;;;;;;16.76;100.00;94342.16;5066492;28;20294;-79
2022/05/30 06:34:12;;;;;;;24.53;13.87;;;;;;;16.79;100.00;94337.16;5051169;28;20205;-79
2022/05/30 06:36:44;;;;;;;28.03;12.60;;;;;;;16.82;100.00;94352.38;5066055;28;20213;-78
2022/05/30 06:39:15;;;;;;;24.40;13.13;;;;;;;16.88;100.00;94350.53;5067398;28;20243;-78
2022/05/30 06:41:48;;;;;;;19.50;12.40;;;;;;;16.86;100.00;94348.16;5065874;28;20250;-78
2022/05/30 06:44:18;;;;;;;27.60;13.57;;;;;;;16.84;100.00;94345.03;5066581;28;20264;-78
2022/05/30 06:46:47;;;;;;;81.07;17.07;;;;;;;16.79;100.00;94350.28;5067013;28;20197;-79
2022/05/30 06:49:19;;;;;;;25.07;14.07;;;;;;;16.79;100.00;94345.03;5066585;28;20286;-80
2022/05/30 06:51:53;;;;;;;30.27;14.47;;;;;;;17.02;100.00;94357.63;5066804;28;20197;-79
2022/05/30 06:54:23;;;;;;;57.47;20.83;;;;;;;17.19;100.00;94357.31;5064243;28;20247;-79
2022/05/30 06:59:39;;;;;;;18.30;13.20;;;;;;;17.41;100.00;94364.88;5007706;28;20863;-79
2022/05/30 07:02:08;;;;;;;21.90;13.53;;;;;;;17.53;100.00;94368.00;5067389;28;20202;-79
2022/05/30 07:04:38;;;;;;;21.63;13.33;;;;;;;17.60;100.00;94350.16;5063275;28;20212;-78
2022/05/30 07:07:11;;;;;;;50.57;14.77;;;;;;;17.73;100.00;94369.81;5062399;28;20258;-77
2022/05/30 07:09:39;;;;;;;34.70;14.73;;;;;;;17.83;100.00;94362.69;5064481;28;20675;-78
2022/05/30 07:12:13;;;;;;;26.90;13.30;;;;;;;17.92;100.00;94357.66;5064915;28;20333;-78
2022/05/30 07:14:45;;;;;;;29.30;13.63;;;;;;;18.14;100.00;94360.69;5064995;28;20255;-77
2022/05/30 07:17:18;;;;;;;28.57;12.80;;;;;;;18.17;100.00;94367.22;5063559;28;20194;-78
2022/05/30 07:19:48;;;;;;;31.65;14.07;;;;;;;18.22;100.00;94368.00;5064943;28;20320;-79
2022/05/30 07:22:23;;;;;;;26.43;12.77;;;;;;;18.35;100.00;94362.13;5062110;28;20213;-78
2022/05/30 07:24:57;;;;;;;24.17;13.13;;;;;;;18.44;100.00;94365.75;5064520;28;20289;-78
2022/05/30 07:27:30;;;;;;;17.80;12.63;;;;;;;18.48;100.00;94358.91;5066129;28;20209;-79
2022/05/30 07:30:00;;;;;;;30.58;14.55;;;;;;;18.48;100.00;94358.09;5065227;28;20201;-72
2022/05/30 07:32:33;;;;;;;16.80;12.48;;;;;;;18.49;100.00;94364.97;5064459;28;20331;-78
2022/05/30 07:35:07;;;;;;;23.90;12.43;;;;;;;18.51;100.00;94355.72;5063643;28;20205;-77
2022/05/30 07:37:43;;;;;;;17.43;11.43;;;;;;;18.54;100.00;94357.81;5063315;28;20205;-79
2022/05/30 07:40:15;;;;;;;74.90;24.05;;;;;;;18.58;100.00;94373.84;5063242;28;20233;-79
2022/05/30 07:42:44;;;;;;;20.50;12.70;;;;;;;18.65;100.00;94366.41;5062958;28;20881;-77
2022/05/30 07:45:17;;;;;;;20.00;12.00;;;;;;;18.69;100.00;94362.19;5062963;28;20202;-77
2022/05/30 07:47:50;;;;;;;20.30;13.90;;;;;;;18.76;100.00;94360.00;5064441;28;20213;-78
2022/05/30 07:50:24;;;;;;;25.10;12.23;;;;;;;18.82;100.00;94364.19;5064100;28;20204;-77
2022/05/30 07:52:56;;;;;;;19.30;10.82;;;;;;;18.87;100.00;94366.00;5066266;28;20216;-77
2022/05/30 07:55:26;;;;;;;19.13;11.07;;;;;;;18.93;100.00;94365.66;5064332;28;20319;-77
2022/05/30 07:58:04;;;;;;;20.92;11.13;;;;;;;18.95;100.00;94366.19;5064503;28;20201;-77
2022/05/30 08:00:35;;;;;;;73.68;19.00;;;;;;;18.90;100.00;94360.97;5062622;28;20212;-77
2022/05/30 08:03:11;;;;;;;26.90;14.05;;;;;;;18.94;100.00;94359.34;5063738;28;20206;-77
2022/05/30 08:05:43;;;;;;;19.80;11.77;;;;;;;19.02;100.00;94360.59;5062790;28;20369;-78
2022/05/30 08:08:15;;;;;;;22.63;13.73;;;;;;;19.12;100.00;94377.09;5064850;28;20334;-77
2022/05/30 08:10:46;;;;;;;19.80;10.75;;;;;;;19.23;100.00;94365.41;5061250;28;20204;-78
2022/05/30 08:13:15;;;;;;;20.40;10.85;;;;;;;19.26;100.00;94375.38;5064989;28;20213;-78
2022/05/30 08:15:48;;;;;;;14.57;9.77;;;;;;;19.24;100.00;94374.88;5066038;28;20205;-78
2022/05/30 08:18:20;;;;;;;32.33;14.70;;;;;;;19.27;100.00;94365.63;5065537;28;20236;-78
2022/05/30 08:20:51;;;;;;;27.75;11.95;;;;;;;19.30;100.00;94373.00;5063285;28;20213;-80
2022/05/30 08:23:23;;;;;;;19.98;11.40;;;;;;;19.38;100.00;94375.00;5062010;28;20201;-77
2022/05/30 08:25:54;;;;;;;23.25;12.15;;;;;;;19.46;100.00;94373.63;5062191;28;20336;-77
2022/05/30 08:28:26;;;;;;;39.55;15.73;;;;;;;19.61;100.00;94379.53;5061180;28;20204;-78
2022/05/30 08:30:56;;;;;;;17.70;10.18;;;;;;;19.68;100.00;94382.63;5061066;28;20197;-78
2022/05/30 08:33:27;;;;;;;16.67;10.25;;;;;;;19.71;100.00;94381.28;5060974;28;20214;-77
2022/05/30 08:36:05;;;;;;;35.63;12.50;;;;;;;19.74;100.00;94384.13;5064454;28;20270;-77
2022/05/30 08:38:37;;;;;;;23.58;10.60;;;;;;;19.85;100.00;94384.81;5064977;28;20189;-77
2022/05/30 08:43:55;;;;;;;17.85;11.07;;;;;;;19.99;100.00;94377.78;5065205;28;20378;-76
2022/05/30 08:46:45;;;;;;;15.52;9.65;;;;;;;19.98;100.00;94375.41;5063472;28;20217;-76
2022/05/30 08:49:21;;;;;;;20.25;11.30;;;;;;;20.14;100.00;94379.44;5063701;28;20197;-76
2022/05/30 08:52:12;;;;;;;23.00;10.70;;;;;;;20.09;100.00;94387.41;5064342;28;20208;-76
2022/05/30 08:55:02;;;;;;;20.42;9.57;;;;;;;20.20;100.00;94383.59;5062681;28;20217;-75
2022/05/30 08:57:42;;;;;;;14.55;9.52;;;;;;;20.25;100.00;94380.91;5064563;28;20201;-76
2022/05/30 09:00:17;;;;;;;24.33;11.10;;;;;;;20.31;100.00;94385.84;5066538;28;20782;-75
2022/05/30 09:02:56;;;;;;;16.00;9.10;;;;;;;20.36;97.90;94388.41;5067444;28;20673;-77
2022/05/30 09:05:34;;;;;;;22.42;13.70;;;;;;;20.30;99.23;94384.28;5065654;28;20198;-77
2022/05/30 09:08:11;;;;;;;20.13;10.48;;;;;;;20.46;97.57;94399.91;5066050;28;20197;-77
2022/05/30 09:10:55;;;;;;;16.70;8.63;;;;;;;20.50;96.59;94403.53;5066760;28;20223;-77
2022/05/30 09:13:32;;;;;;;21.70;10.48;;;;;;;20.56;97.96;94394.47;5065703;28;20208;-77
2022/05/30 09:16:10;;;;;;;16.65;9.40;;;;;;;20.69;99.05;94391.13;5067851;28;20208;-77
2022/05/30 09:18:48;;;;;;;21.73;9.98;;;;;;;20.84;98.75;94398.81;5065515;28;20306;-77
2022/05/30 09:21:20;;;;;;;12.48;9.00;;;;;;;20.95;96.87;94394.94;5061708;28;20213;-78
2022/05/30 09:23:50;;;;;;;13.48;8.45;;;;;;;20.99;94.59;94400.41;5068551;28;20201;-75
2022/05/30 09:26:26;;;;;;;13.98;9.07;;;;;;;21.01;94.74;94399.06;5067541;28;20209;-76
2022/05/30 09:29:06;;;;;;;16.95;8.50;;;;;;;21.20;96.06;94399.84;5064667;28;20197;-76
2022/05/30 09:31:49;;;;;;;20.35;8.77;;;;;;;21.29;94.86;94395.47;5067220;28;20913;-77
2022/05/30 09:34:40;;;;;;;14.65;8.05;;;;;;;21.40;91.63;94410.06;5064959;28;20263;-77
2022/05/30 09:37:26;;;;;;;14.02;7.75;;;;;;;21.37;91.05;94405.38;5067678;28;20243;-74
2022/05/30 09:40:02;;;;;;;13.13;8.15;;;;;;;21.44;93.33;94402.34;5064054;28;20248;-74
2022/05/30 09:42:37;;;;;;;22.92;9.07;;;;;;;21.57;92.45;94404.22;5065496;28;20205;-76
2022/05/30 09:45:14;;;;;;;14.45;8.98;;;;;;;21.61;92.10;94407.88;5066710;28;20232;-77
2022/05/30 09:48:03;;;;;;;20.15;9.40;;;;;;;21.52;92.98;94409.63;5066319;28;20235;-74
2022/05/30 09:50:42;;;;;;;13.95;8.80;;;;;;;21.65;92.22;94408.03;5065837;28;20194;-79
2022/05/30 09:53:12;;;;;;;15.00;8.35;;;;;;;21.83;92.87;94405.31;5066231;28;20319;-78
2022/05/30 09:55:48;;;;;;;17.25;8.60;;;;;;;21.93;89.31;94405.16;5066120;28;20721;-76
2022/05/30 09:58:43;;;;;;;20.20;8.50;;;;;;;22.13;89.82;94403.97;5063327;28;20209;-77
2022/05/30 10:01:14;;;;;;;14.73;7.82;;;;;;;22.31;89.08;94408.34;5066691;28;20304;-77
2022/05/30 10:03:46;;;;;;;13.60;8.60;;;;;;;22.52;85.23;94416.66;5067743;28;20319;-77
2022/05/30 10:06:23;;;;;;;18.00;8.00;;;;;;;22.66;86.90;94414.00;5067608;28;20208;-77
2022/05/30 10:09:12;;;;;;;15.45;8.05;;;;;;;22.82;86.67;94412.59;5067080;28;20212;-76
2022/05/30 10:11:44;;;;;;;14.93;7.90;;;;;;;23.05;86.38;94414.16;5067920;28;20205;-76
2022/05/30 10:14:29;;;;;;;14.85;7.72;;;;;;;23.22;84.58;94405.53;5064859;28;20207;-77
2022/05/30 10:17:13;;;;;;;12.02;6.95;;;;;;;23.45;83.38;94407.13;5064140;28;20224;-77
2022/05/30 10:19:52;;;;;;;15.32;7.35;;;;;;;23.60;81.21;94406.75;5066061;28;20208;-76
2022/05/30 10:28:50;;;;;;;10.80;7.13;;;;;;;23.84;78.79;94407.13;4970027;28;20322;-78
2022/05/30 10:31:38;;;;;;;14.02;8.80;;;;;;;23.83;79.03;94394.97;5042807;28;20263;-78
2022/05/30 10:34:32;;;;;;;14.38;8.52;;;;;;;23.89;77.61;94403.59;5065715;28;20208;-78
2022/05/30 10:37:18;;;;;;;18.10;7.47;;;;;;;24.09;78.99;94411.78;5066457;28;20209;-75
2022/05/30 10:40:17;;;;;;;14.07;7.20;;;;;;;24.31;76.67;94412.78;5066212;28;20293;-77
2022/05/30 10:42:52;;;;;;;15.90;7.82;;;;;;;24.50;77.16;94408.00;5061692;28;20557;-78
2022/05/30 10:45:32;;;;;;;16.50;8.88;;;;;;;24.67;76.76;94415.97;5065544;28;20204;-76
2022/05/30 10:48:08;;;;;;;19.27;7.63;;;;;;;24.83;76.24;94404.59;5065222;28;20205;-78
2022/05/30 10:50:49;;;;;;;14.32;7.35;;;;;;;25.06;75.11;94412.41;5064859;28;20201;-76
2022/05/30 10:53:31;;;;;;;12.38;6.50;;;;;;;25.18;73.94;94415.22;5063642;28;20247;-79
2022/05/30 10:56:16;;;;;;;15.68;7.13;;;;;;;25.26;73.86;94409.09;5064495;28;20197;-77
2022/05/30 10:58:52;;;;;;;14.18;7.50;;;;;;;25.49;73.57;94410.50;5063438;28;20644;-78
2022/05/30 11:01:38;;;;;;;13.55;7.30;;;;;;;25.77;71.47;94410.91;5062723;28;20208;-78
2022/05/30 11:04:35;;;;;;;15.02;6.97;;;;;;;25.80;69.29;94412.94;5064695;28;20203;-78
2022/05/30 11:07:28;;;;;;;12.02;7.00;;;;;;;25.77;70.29;94392.25;5063479;28;20202;-79
2022/05/30 11:10:08;;;;;;;11.43;6.40;;;;;;;25.80;70.68;94397.72;5063286;28;20781;-77
2022/05/30 11:12:43;;;;;;;16.42;7.32;;;;;;;26.03;70.42;94405.47;5065077;28;20204;-78
2022/05/30 11:15:18;;;;;;;14.20;6.88;;;;;;;26.13;69.82;94408.53;5065130;28;20255;-78
2022/05/30 11:17:59;;;;;;;10.35;7.22;;;;;;;26.31;70.14;94404.72;5064740;28;20205;-75
2022/05/30 11:20:38;;;;;;;9.88;6.75;;;;;;;26.61;69.24;94405.47;5063775;28;20360;-78
2022/05/30 11:23:10;;;;;;;14.00;6.68;;;;;;;26.90;69.58;94404.66;5064467;28;20623;-77
2022/05/30 11:26:01;;;;;;;11.77;6.60;;;;;;;27.00;66.21;94409.59;5065991;28;20209;-77
2022/05/30 11:28:42;;;;;;;20.10;7.22;;;;;;;27.08;66.99;94402.63;5064833;28;20197;-76
2022/05/30 11:31:22;;;;;;;11.35;6.20;;;;;;;27.28;64.89;94405.25;5067027;28;20213;-78
2022/05/30 11:34:04;;;;;;;16.70;8.32;;;;;;;27.55;63.94;94410.06;5066659;28;20201;-78
2022/05/30 11:36:55;;;;;;;13.48;7.85;;;;;;;27.93;63.94;94403.66;5065854;28;20284;-78
2022/05/30 11:39:45;;;;;;;9.45;5.57;;;;;;;28.17;60.67;94407.16;5064860;28;20636;-77
2022/05/30 11:42:26;;;;;;;11.23;5.45;;;;;;;28.14;60.04;94407.03;5064983;28;20259;-76
2022/05/30 11:44:59;;;;;;;10.50;5.70;;;;;;;27.87;57.36;94402.31;5062971;28;21043;-76
2022/05/30 11:47:43;;;;;;;9.48;5.90;;;;;;;27.61;57.68;94394.59;5063346;28;20264;-76
2022/05/30 11:50:32;;;;;;;8.60;4.97;;;;;;;27.68;57.43;94397.50;5064054;28;20201;-76
2022/05/30 11:53:38;;;;;;;14.88;6.18;;;;;;;27.98;58.57;94393.53;5062135;28;20259;-76
2022/05/30 11:56:20;;;;;;;13.10;5.90;;;;;;;28.42;59.75;94396.44;5063501;28;20215;-76
2022/05/30 11:59:11;;;;;;;11.65;5.53;;;;;;;28.73;55.95;94393.97;5059128;28;20197;-76
2022/05/30 12:01:45;;;;;;;33.60;6.80;;;;;;;28.92;54.61;94396.81;5062829;28;20235;-76
2022/05/30 12:05:06;;;;;;;11.02;5.53;;;;;;;29.02;53.14;94393.66;5064665;28;20701;-75
2022/05/30 12:08:20;;;;;;;16.10;5.95;;;;;;;28.90;54.46;94393.69;5062277;28;20284;-76
2022/05/30 12:11:12;;;;;;;11.60;5.32;;;;;;;29.02;54.92;94395.56;5010738;28;20652;-75
2022/05/30 12:13:58;;;;;;;21.60;7.22;;;;;;;29.30;54.60;94399.03;5066160;28;21520;-75
2022/05/30 12:16:44;;;;;;;19.77;7.68;;;;;;;29.65;53.62;94401.88;5063794;28;20216;-75